createdAt,value
2023-03-06T00:00:20.388Z,-0.82
2023-03-06T00:01:20.345Z,-0.89
2023-03-06T00:02:20.577Z,-0.85
2023-03-06T00:03:20.640Z,-0.84
2023-03-06T00:04:20.554Z,-0.93
2023-03-06T00:05:20.559Z,-0.95
2023-03-06T00:06:20.571Z,-0.95
2023-03-06T00:07:20.466Z,-0.95
2023-03-06T00:08:20.440Z,-0.93
2023-03-06T00:09:20.413Z,-0.96
2023-03-06T00:10:20.509Z,-0.96
2023-03-06T00:11:20.150Z,-1.06
2023-03-06T00:12:20.357Z,-1.07
2023-03-06T00:13:20.079Z,-1.14
2023-03-06T00:14:20.062Z,-1.21
2023-03-06T00:15:20.324Z,-1.22
2023-03-06T00:16:20.477Z,-1.16
2023-03-06T00:17:20.304Z,-1.22
2023-03-06T00:18:19.996Z,-1.22
2023-03-06T00:19:19.961Z,-1.22
2023-03-06T00:20:20.225Z,-1.21
2023-03-06T00:21:20.285Z,-1.16
2023-03-06T00:22:19.653Z,-1.17
2023-03-06T00:23:20.139Z,-1.24
2023-03-06T00:24:19.860Z,-1.24
2023-03-06T00:25:19.850Z,-1.24
2023-03-06T00:26:20.081Z,-1.31
2023-03-06T00:27:19.817Z,-1.24
2023-03-06T00:28:19.992Z,-1.37
2023-03-06T00:29:20.020Z,-1.28
2023-03-06T00:30:19.753Z,-1.32
2023-03-06T00:31:20.065Z,-1.28
2023-03-06T00:32:20.081Z,-1.35
2023-03-06T00:33:19.992Z,-1.31
2023-03-06T00:34:19.911Z,-1.35
2023-03-06T00:35:19.467Z,-1.48
2023-03-06T00:36:19.648Z,-1.38
2023-03-06T00:37:20.016Z,-1.45
2023-03-06T00:38:19.592Z,-1.42
2023-03-06T00:39:19.567Z,-1.49
2023-03-06T00:40:19.565Z,-1.43
2023-03-06T00:41:19.762Z,-1.46
2023-03-06T00:42:19.748Z,-1.48
2023-03-06T00:43:19.202Z,-1.46
2023-03-06T00:44:19.693Z,-1.46
2023-03-06T00:45:19.187Z,-1.42
2023-03-06T00:46:19.406Z,-1.53
2023-03-06T00:47:19.494Z,-1.53
2023-03-06T00:48:19.115Z,-1.46
2023-03-06T00:49:19.372Z,-1.48
2023-03-06T00:50:19.621Z,-1.46
2023-03-06T00:51:19.057Z,-1.43
2023-03-06T00:52:19.574Z,-1.43
2023-03-06T00:53:19.581Z,-1.52
2023-03-06T00:54:19.516Z,-1.45
2023-03-06T00:55:19.482Z,-1.53
2023-03-06T00:56:22.224Z,-1.46
2023-03-06T00:57:19.176Z,-1.45
2023-03-06T00:58:19.162Z,-1.49
2023-03-06T00:59:19.422Z,-1.5
2023-03-06T01:00:19.114Z,-1.56
2023-03-06T01:01:19.556Z,-1.6
2023-03-06T01:02:19.542Z,-1.56
2023-03-06T01:03:19.076Z,-1.64
2023-03-06T01:04:19.311Z,-1.58
2023-03-06T01:05:18.796Z,-1.6
2023-03-06T01:06:19.251Z,-1.63
2023-03-06T01:07:18.977Z,-1.74
2023-03-06T01:08:19.233Z,-1.71
2023-03-06T01:09:19.228Z,-1.68
2023-03-06T01:10:18.909Z,-1.74
2023-03-06T01:11:18.631Z,-1.74
2023-03-06T01:12:20.204Z,-1.82
2023-03-06T01:13:19.100Z,-1.82
2023-03-06T01:14:19.127Z,-1.81
2023-03-06T01:15:19.079Z,-1.97
2023-03-06T01:16:19.013Z,-1.97
2023-03-06T01:17:18.783Z,-1.96
2023-03-06T01:18:18.996Z,-1.99
2023-03-06T01:19:19.002Z,-2.09
2023-03-06T01:20:18.959Z,-2.03
2023-03-06T01:21:18.677Z,-2.09
2023-03-06T01:22:18.906Z,-2.12
2023-03-06T01:23:18.641Z,-2
2023-03-06T01:24:18.902Z,-2.03
2023-03-06T01:25:18.916Z,-2.15
2023-03-06T01:26:18.578Z,-2.07
2023-03-06T01:27:18.568Z,-2.09
2023-03-06T01:28:18.293Z,-2.09
2023-03-06T01:29:18.772Z,-2.06
2023-03-06T01:30:18.750Z,-2.06
2023-03-06T01:31:18.772Z,-2.03
2023-03-06T01:32:18.639Z,-2.03
2023-03-06T01:34:18.406Z,-1.92
2023-03-06T01:35:18.156Z,-1.97
2023-03-06T01:36:18.618Z,-1.86
2023-03-06T01:37:18.596Z,-1.85
2023-03-06T01:38:18.332Z,-1.74
2023-03-06T01:39:18.564Z,-1.7
2023-03-06T01:40:18.602Z,-1.71
2023-03-06T01:41:18.580Z,-1.61
2023-03-06T01:42:18.267Z,-1.61
2023-03-06T01:43:18.485Z,-1.46
2023-03-06T01:44:18.618Z,-1.5
2023-03-06T01:45:18.226Z,-1.34
2023-03-06T01:46:18.570Z,-1.35
2023-03-06T01:47:17.895Z,-1.22
2023-03-06T01:48:18.370Z,-1.17
2023-03-06T01:49:18.353Z,-1.27
2023-03-06T01:50:18.332Z,-1.07
2023-03-06T01:51:18.088Z,-1.06
2023-03-06T01:52:18.334Z,-1.04
2023-03-06T01:53:18.020Z,-1.03
2023-03-06T01:54:18.244Z,-0.99
2023-03-06T01:55:18.235Z,-0.95
2023-03-06T01:56:17.977Z,-0.89
2023-03-06T01:57:18.232Z,-0.93
2023-03-06T01:58:17.909Z,-0.89
2023-03-06T01:59:17.890Z,-0.91
2023-03-06T02:00:18.130Z,-0.89
2023-03-06T02:01:18.456Z,-0.85
2023-03-06T02:02:18.231Z,-0.85
2023-03-06T02:03:17.802Z,-0.84
2023-03-06T02:04:17.796Z,-0.92
2023-03-06T02:05:18.055Z,-0.77
2023-03-06T02:06:17.486Z,-0.76
2023-03-06T02:07:17.981Z,-0.67
2023-03-06T02:08:17.462Z,-0.58
2023-03-06T02:09:17.949Z,-0.62
2023-03-06T02:10:17.668Z,-0.73
2023-03-06T02:11:18.105Z,-0.54
2023-03-06T02:12:17.915Z,-0.52
2023-03-06T02:13:17.920Z,-0.52
2023-03-06T02:14:17.619Z,-0.49
2023-03-06T02:15:17.806Z,-0.49
2023-03-06T02:16:17.608Z,-0.4
2023-03-06T02:17:17.543Z,-0.41
2023-03-06T02:18:17.751Z,-0.41
2023-03-06T02:19:17.792Z,-0.27
2023-03-06T02:20:17.214Z,-0.33
2023-03-06T02:21:17.443Z,-0.3
2023-03-06T02:22:17.454Z,-0.31
2023-03-06T02:23:17.150Z,-0.25
2023-03-06T02:24:17.146Z,-0.22
2023-03-06T02:25:17.659Z,-0.22
2023-03-06T02:26:17.680Z,-0.22
2023-03-06T02:27:17.071Z,-0.19
2023-03-06T02:28:17.606Z,-0.22
2023-03-06T02:29:17.580Z,-0.16
2023-03-06T02:30:17.529Z,-0.13
2023-03-06T02:31:17.662Z,-0.16
2023-03-06T02:32:17.723Z,-0.07
2023-03-06T02:33:17.218Z,-0.15
2023-03-06T02:34:17.474Z,-0.1
2023-03-06T02:35:17.422Z,-0.1
2023-03-06T02:36:17.394Z,-0.1
2023-03-06T02:37:17.146Z,-0.04
2023-03-06T02:38:17.087Z,-0.09
2023-03-06T02:39:17.330Z,-0.09
2023-03-06T02:40:17.069Z,-0.09
2023-03-06T02:41:17.299Z,0.02
2023-03-06T02:42:17.270Z,-0.02
2023-03-06T02:43:17.000Z,-0.09
2023-03-06T02:44:17.256Z,-0.04
2023-03-06T02:45:17.258Z,-0.07
2023-03-06T02:46:17.456Z,0.01
2023-03-06T02:47:17.197Z,0.02
2023-03-06T02:48:17.148Z,-0.04
2023-03-06T02:49:17.135Z,0.02
2023-03-06T02:50:17.106Z,0.01
2023-03-06T02:51:17.104Z,-0.01
2023-03-06T02:52:16.557Z,-0.04
2023-03-06T02:53:17.074Z,0.02
2023-03-06T02:54:17.056Z,0.05
2023-03-06T02:55:17.014Z,0.01
2023-03-06T02:56:16.991Z,0.09
2023-03-06T02:57:16.985Z,0.01
2023-03-06T02:58:16.950Z,0.03
2023-03-06T02:59:16.932Z,0.01
2023-03-06T03:00:16.747Z,0.09
2023-03-06T03:01:17.118Z,0.09
2023-03-06T03:02:16.875Z,0.01
2023-03-06T03:03:16.347Z,0.01
2023-03-06T03:04:16.993Z,-0.02
2023-03-06T03:05:16.811Z,0.02
2023-03-06T03:06:16.817Z,0.05
2023-03-06T03:07:16.768Z,0.09
2023-03-06T03:08:16.741Z,0.01
2023-03-06T03:09:16.225Z,0.01
2023-03-06T03:10:16.451Z,0.05
2023-03-06T03:11:16.432Z,0.06
2023-03-06T03:12:16.410Z,0.03
2023-03-06T03:13:16.651Z,0.05
2023-03-06T03:14:16.369Z,0.03
2023-03-06T03:15:16.642Z,0.05
2023-03-06T03:16:16.711Z,0.03
2023-03-06T03:17:16.608Z,0.03
2023-03-06T03:18:16.304Z,0.06
2023-03-06T03:19:16.261Z,0.06
2023-03-06T03:20:16.530Z,0.05
2023-03-06T03:21:16.492Z,0.01
2023-03-06T03:22:16.453Z,0.01
2023-03-06T03:23:16.455Z,0.02
2023-03-06T03:24:15.959Z,0.08
2023-03-06T03:25:16.162Z,0.06
2023-03-06T03:26:16.405Z,0.01
2023-03-06T03:27:16.412Z,0.03
2023-03-06T03:28:16.098Z,0.1
2023-03-06T03:29:16.101Z,0.01
2023-03-06T03:30:16.071Z,0.05
2023-03-06T03:31:16.317Z,0.08
2023-03-06T03:32:16.423Z,0.01
2023-03-06T03:49:49.437Z,-0.28
2023-03-06T03:50:48.813Z,-0.37
2023-03-06T03:51:49.267Z,-0.4
2023-03-06T03:52:49.244Z,-0.34
2023-03-06T03:53:49.262Z,-0.38
2023-03-06T03:54:48.681Z,-0.36
2023-03-06T03:55:49.159Z,-0.36
2023-03-06T03:56:48.898Z,-0.33
2023-03-06T03:57:49.136Z,-0.34
2023-03-06T03:58:48.845Z,-0.34
2023-03-06T03:59:49.104Z,-0.27
2023-03-06T04:00:48.801Z,-0.25
2023-03-06T04:01:49.132Z,-0.2
2023-03-06T04:02:48.513Z,-0.16
2023-03-06T04:03:48.748Z,-0.23
2023-03-06T04:04:48.863Z,-0.25
2023-03-06T04:05:49.024Z,-0.27
2023-03-06T04:06:48.947Z,-0.19
2023-03-06T04:07:48.930Z,-0.23
2023-03-06T04:08:48.666Z,-0.13
2023-03-06T04:09:48.614Z,-0.16
2023-03-06T04:10:48.608Z,-0.15
2023-03-06T04:11:48.860Z,-0.13
2023-03-06T04:12:48.810Z,-0.13
2023-03-06T04:13:48.831Z,-0.13
2023-03-06T04:14:48.774Z,-0.07
2023-03-06T04:15:48.750Z,-0.07
2023-03-06T04:16:48.738Z,-0.02
2023-03-06T04:17:48.722Z,-0.01
2023-03-06T04:18:48.680Z,-0.05
2023-03-06T04:19:48.421Z,-0.04
2023-03-06T04:20:48.658Z,0.01
2023-03-06T04:21:48.709Z,0.01
2023-03-06T04:22:48.355Z,-0.04
2023-03-06T04:23:48.575Z,-0.02
2023-03-06T04:24:48.244Z,-0.04
2023-03-06T04:25:48.556Z,0.05
2023-03-06T04:26:48.580Z,0.05
2023-03-06T04:27:48.506Z,-0.02
2023-03-06T04:28:48.256Z,0.01
2023-03-06T04:29:48.256Z,-0.02
2023-03-06T04:30:48.449Z,-0.02
2023-03-06T04:31:48.102Z,-0.01
2023-03-06T04:32:47.966Z,-0.02
2023-03-06T04:33:48.138Z,0.01
2023-03-06T04:34:48.385Z,-0.09
2023-03-06T04:35:48.318Z,-0.12
2023-03-06T04:36:48.323Z,-0.02
2023-03-06T04:37:48.593Z,-0.05
2023-03-06T04:38:48.112Z,-0.13
2023-03-06T04:39:48.011Z,-0.09
2023-03-06T04:40:49.975Z,-0.09
2023-03-06T04:41:48.574Z,-0.09
2023-03-06T04:42:48.679Z,-0.15
2023-03-06T04:43:48.674Z,-0.05
2023-03-06T04:44:48.695Z,-0.19
2023-03-06T04:45:48.816Z,-0.22
2023-03-06T04:46:48.557Z,-0.16
2023-03-06T04:47:48.242Z,-0.27
2023-03-06T04:48:48.466Z,-0.27
2023-03-06T04:49:48.462Z,-0.25
2023-03-06T04:50:48.173Z,-0.18
2023-03-06T04:51:48.401Z,-0.2
2023-03-06T04:52:48.135Z,-0.19
2023-03-06T04:53:48.456Z,-0.23
2023-03-06T04:54:48.094Z,-0.23
2023-03-06T04:55:48.338Z,-0.23
2023-03-06T04:56:48.298Z,-0.27
2023-03-06T04:57:48.287Z,-0.23
2023-03-06T04:58:48.272Z,-0.22
2023-03-06T04:59:48.274Z,-0.3
2023-03-06T05:00:48.108Z,-0.25
2023-03-06T05:01:48.270Z,-0.25
2023-03-06T05:02:47.948Z,-0.2
2023-03-06T05:03:48.196Z,-0.22
2023-03-06T05:04:47.886Z,-0.27
2023-03-06T05:05:47.897Z,-0.2
2023-03-06T05:06:48.119Z,-0.22
2023-03-06T05:07:48.110Z,-0.25
2023-03-06T05:08:48.084Z,-0.23
2023-03-06T05:09:48.119Z,-0.2
2023-03-06T05:10:47.771Z,-0.2
2023-03-06T05:11:48.011Z,-0.19
2023-03-06T05:12:47.727Z,-0.16
2023-03-06T05:13:47.970Z,-0.23
2023-03-06T05:14:50.418Z,-0.23
2023-03-06T05:15:47.666Z,-0.2
2023-03-06T05:16:48.160Z,-0.2
2023-03-06T05:17:47.628Z,-0.22
2023-03-06T05:18:50.221Z,-0.22
2023-03-06T05:19:47.841Z,-0.28
2023-03-06T05:20:47.845Z,-0.22
2023-03-06T05:21:47.803Z,-0.2
2023-03-06T05:22:47.804Z,-0.23
2023-03-06T05:23:47.762Z,-0.16
2023-03-06T05:24:47.749Z,-0.2
2023-03-06T05:25:47.819Z,-0.13
2023-03-06T05:26:47.445Z,-0.13
2023-03-06T05:27:47.434Z,-0.13
2023-03-06T05:28:47.423Z,-0.05
2023-03-06T05:29:47.380Z,-0.09
2023-03-06T05:30:47.632Z,-0.01
2023-03-06T05:31:47.534Z,-0.07
2023-03-06T05:32:48.003Z,-0.01
2023-03-06T05:33:47.561Z,-0.01
2023-03-06T05:34:47.031Z,0.02
2023-03-06T05:35:47.389Z,0.02
2023-03-06T05:36:47.508Z,0.01
2023-03-06T05:37:47.430Z,0.02
2023-03-06T05:38:47.215Z,0.02
2023-03-06T05:39:47.447Z,0.08
2023-03-06T05:40:47.443Z,0.06
2023-03-06T05:41:47.478Z,0.09
2023-03-06T05:42:47.430Z,0.08
2023-03-06T05:43:47.378Z,0.19
2023-03-06T05:44:46.838Z,0.09
2023-03-06T05:45:47.445Z,0.1
2023-03-06T05:46:47.041Z,0.14
2023-03-06T05:47:47.053Z,0.2
2023-03-06T05:48:49.028Z,0.16
2023-03-06T05:49:47.001Z,0.14
2023-03-06T05:50:47.272Z,0.14
2023-03-06T05:51:46.984Z,0.17
2023-03-06T05:52:46.999Z,0.08
2023-03-06T05:53:47.172Z,0.09
2023-03-06T05:54:46.636Z,0.09
2023-03-06T05:55:47.126Z,0.17
2023-03-06T05:56:47.786Z,0.14
2023-03-06T05:57:47.171Z,0.17
2023-03-06T05:58:47.069Z,0.17
2023-03-06T05:59:48.655Z,0.16
2023-03-06T06:00:47.026Z,0.09
2023-03-06T06:01:47.009Z,0.2
2023-03-06T06:02:46.956Z,0.17
2023-03-06T06:03:47.152Z,0.2
2023-03-06T06:04:46.435Z,0.21
2023-03-06T06:05:46.675Z,0.2
2023-03-06T06:06:46.913Z,0.16
2023-03-06T06:07:46.915Z,0.28
2023-03-06T06:08:46.893Z,0.27
2023-03-06T06:09:46.880Z,0.23
2023-03-06T06:10:46.587Z,0.26
2023-03-06T06:11:46.588Z,0.28
2023-03-06T06:12:46.799Z,0.27
2023-03-06T06:13:46.879Z,0.28
2023-03-06T06:14:46.752Z,0.26
2023-03-06T06:15:46.890Z,0.21
2023-03-06T06:16:46.461Z,0.32
2023-03-06T06:17:46.475Z,0.26
2023-03-06T06:18:46.689Z,0.24
2023-03-06T06:19:46.392Z,0.24
2023-03-06T06:20:46.389Z,0.32
2023-03-06T06:21:46.358Z,0.35
2023-03-06T06:22:46.387Z,0.39
2023-03-06T06:23:46.686Z,0.34
2023-03-06T06:24:46.329Z,0.35
2023-03-06T06:25:46.553Z,0.31
2023-03-06T06:26:46.328Z,0.34
2023-03-06T06:27:46.502Z,0.39
2023-03-06T06:28:46.244Z,0.37
2023-03-06T06:29:46.534Z,0.35
2023-03-06T06:30:46.548Z,0.38
2023-03-06T06:31:46.537Z,0.45
2023-03-06T06:32:46.512Z,0.37
2023-03-06T06:33:46.425Z,0.39
2023-03-06T06:34:46.395Z,0.34
2023-03-06T06:35:46.384Z,0.52
2023-03-06T06:36:46.340Z,0.44
2023-03-06T06:37:46.359Z,0.41
2023-03-06T06:38:46.037Z,0.45
2023-03-06T06:39:45.759Z,0.44
2023-03-06T06:41:11.612Z,0.39
2023-03-06T06:42:42.609Z,0.52
2023-03-06T06:43:30.835Z,0.48
2023-03-06T06:44:31.065Z,0.5
2023-03-06T06:45:31.111Z,0.52
2023-03-06T06:47:27.034Z,0.52
2023-03-06T06:47:37.081Z,0.53
2023-03-06T06:48:36.702Z,0.5
2023-03-06T06:49:36.694Z,0.48
2023-03-06T06:50:36.688Z,0.53
2023-03-06T06:51:36.147Z,0.45
2023-03-06T06:52:36.634Z,0.44
2023-03-06T06:53:36.103Z,0.44
2023-03-06T06:54:36.582Z,0.44
2023-03-06T06:55:36.303Z,0.53
2023-03-06T06:56:36.552Z,0.48
2023-03-06T06:57:36.321Z,0.44
2023-03-06T06:58:36.511Z,0.41
2023-03-06T06:59:36.521Z,0.47
2023-03-06T07:00:36.586Z,0.5
2023-03-06T07:01:36.357Z,0.56
2023-03-06T07:02:36.188Z,0.53
2023-03-06T07:03:36.598Z,0.48
2023-03-06T07:04:36.406Z,0.53
2023-03-06T07:05:36.130Z,0.5
2023-03-06T07:06:36.097Z,0.52
2023-03-06T07:07:36.371Z,0.57
2023-03-06T07:08:35.797Z,0.57
2023-03-06T07:09:36.042Z,0.57
2023-03-06T07:10:36.295Z,0.53
2023-03-06T07:11:36.098Z,0.57
2023-03-06T07:12:35.735Z,0.56
2023-03-06T07:13:36.232Z,0.44
2023-03-06T07:14:36.196Z,0.47
2023-03-06T07:15:35.965Z,0.41
2023-03-06T07:16:36.357Z,0.39
2023-03-06T07:17:35.882Z,0.44
2023-03-06T07:18:37.328Z,0.41
2023-03-06T07:19:38.590Z,0.47
2023-03-06T07:20:36.861Z,0.35
2023-03-06T07:21:37.077Z,0.48
2023-03-06T07:22:54.407Z,0.52
2023-03-06T07:23:37.032Z,0.5
2023-03-06T07:24:36.767Z,0.5
2023-03-06T07:25:37.009Z,0.5
2023-03-06T07:26:39.302Z,0.58
2023-03-06T07:27:37.063Z,0.47
2023-03-06T07:28:55.033Z,0.48
2023-03-06T07:29:36.823Z,0.48
2023-03-06T07:30:36.943Z,0.53
2023-03-06T07:31:36.876Z,0.5
2023-03-06T07:32:37.132Z,0.56
2023-03-06T07:33:36.856Z,0.47
2023-03-06T07:34:36.844Z,0.52
2023-03-06T07:35:36.796Z,0.56
2023-03-06T07:36:36.635Z,0.53
2023-03-06T07:37:36.782Z,0.47
2023-03-06T07:38:36.513Z,0.39
2023-03-06T07:39:36.748Z,0.53
2023-03-06T07:40:36.721Z,0.44
2023-03-06T07:41:36.697Z,0.38
2023-03-06T07:42:36.663Z,0.34
2023-03-06T07:43:36.648Z,0.42
2023-03-06T07:44:36.645Z,0.53
2023-03-06T07:45:36.349Z,0.56
2023-03-06T07:46:36.504Z,0.52
2023-03-06T07:47:36.583Z,0.67
2023-03-06T07:48:36.704Z,0.66
2023-03-06T07:49:36.544Z,0.74
2023-03-06T07:50:36.257Z,0.72
2023-03-06T07:51:36.508Z,0.82
2023-03-06T07:52:36.489Z,0.85
2023-03-06T07:53:36.475Z,0.86
2023-03-06T07:54:36.196Z,0.92
2023-03-06T07:55:36.169Z,1
2023-03-06T07:56:36.410Z,1.08
2023-03-06T07:57:36.138Z,1.12
2023-03-06T07:58:36.483Z,1.15
2023-03-06T07:59:35.859Z,1.15
2023-03-06T08:00:36.083Z,1.14
2023-03-06T08:01:36.498Z,1.15
2023-03-06T08:02:36.458Z,1.24
2023-03-06T08:03:36.265Z,1.24
2023-03-06T08:04:36.325Z,1.3
2023-03-06T08:05:35.723Z,1.36
2023-03-06T08:06:35.972Z,1.29
2023-03-06T08:07:35.684Z,1.35
2023-03-06T08:08:36.024Z,1.38
2023-03-06T08:09:35.902Z,1.28
2023-03-06T08:10:35.910Z,1.29
2023-03-06T08:11:35.890Z,1.32
2023-03-06T08:12:36.097Z,1.26
2023-03-06T08:13:35.814Z,1.28
2023-03-06T08:14:35.808Z,1.39
2023-03-06T08:15:36.042Z,1.35
2023-03-06T08:16:35.955Z,1.29
2023-03-06T08:17:35.756Z,1.35
2023-03-06T08:18:35.720Z,1.28
2023-03-06T08:19:35.700Z,1.38
2023-03-06T08:20:36.000Z,1.36
2023-03-06T08:21:35.681Z,1.47
2023-03-06T08:22:35.910Z,1.51
2023-03-06T08:23:35.637Z,1.5
2023-03-06T08:24:35.886Z,1.53
2023-03-06T08:25:35.847Z,1.57
2023-03-06T08:26:35.324Z,1.42
2023-03-06T08:27:35.559Z,1.58
2023-03-06T08:28:35.564Z,1.66
2023-03-06T08:29:37.176Z,1.74
2023-03-06T08:30:35.499Z,1.83
2023-03-06T08:31:35.457Z,1.93
2023-03-06T08:32:35.906Z,1.86
2023-03-06T08:33:35.702Z,1.86
2023-03-06T08:34:35.698Z,2.01
2023-03-06T08:35:35.465Z,1.92
2023-03-06T08:36:35.729Z,1.87
2023-03-06T08:37:35.808Z,1.84
2023-03-06T08:38:35.626Z,1.97
2023-03-06T08:39:35.323Z,1.94
2023-03-06T08:40:35.307Z,1.98
2023-03-06T08:41:35.577Z,2.02
2023-03-06T08:42:35.532Z,2.06
2023-03-06T08:43:35.241Z,2.08
2023-03-06T08:44:35.645Z,2.05
2023-03-06T08:45:35.312Z,2.04
2023-03-06T08:46:35.197Z,2.22
2023-03-06T08:47:35.235Z,2.16
2023-03-06T08:48:35.414Z,2.2
2023-03-06T08:49:35.156Z,2.24
2023-03-06T08:50:35.383Z,2.26
2023-03-06T08:51:35.118Z,2.29
2023-03-06T08:52:35.424Z,2.31
2023-03-06T08:53:47.286Z,2.4
2023-03-06T08:54:35.298Z,2.34
2023-03-06T08:55:35.030Z,2.41
2023-03-06T08:56:35.010Z,2.49
2023-03-06T08:57:34.734Z,2.49
2023-03-06T08:58:35.230Z,2.54
2023-03-06T08:59:35.254Z,2.59
2023-03-06T09:00:35.117Z,2.59
2023-03-06T09:01:35.392Z,2.54
2023-03-06T09:02:35.355Z,2.58
2023-03-06T09:03:35.140Z,2.54
2023-03-06T09:04:35.123Z,2.59
2023-03-06T09:05:34.846Z,2.7
2023-03-06T09:06:35.110Z,2.69
2023-03-06T09:07:34.920Z,2.72
2023-03-06T09:08:35.108Z,2.8
2023-03-06T09:09:35.016Z,2.85
2023-03-06T09:10:35.137Z,2.98
2023-03-06T09:11:34.738Z,3.13
2023-03-06T09:12:53.209Z,3.09
2023-03-06T09:13:34.717Z,3.19
2023-03-06T09:14:34.946Z,3.14
2023-03-06T09:15:34.921Z,3.21
2023-03-06T09:16:34.766Z,3.24
2023-03-06T09:17:34.767Z,3.26
2023-03-06T09:18:34.848Z,3.42
2023-03-06T09:19:34.839Z,3.46
2023-03-06T09:20:34.570Z,3.53
2023-03-06T09:21:34.853Z,3.56
2023-03-06T09:22:34.825Z,3.6
2023-03-06T09:23:34.809Z,3.63
2023-03-06T09:24:34.948Z,3.6
2023-03-06T09:25:34.729Z,3.56
2023-03-06T09:26:51.868Z,3.58
2023-03-06T09:27:35.270Z,3.56
2023-03-06T09:28:34.993Z,3.51
2023-03-06T09:29:34.982Z,3.53
2023-03-06T09:30:35.096Z,3.57
2023-03-06T09:31:34.691Z,3.53
2023-03-06T09:32:35.101Z,3.45
2023-03-06T09:33:34.900Z,3.45
2023-03-06T09:34:34.908Z,3.48
2023-03-06T09:35:34.995Z,3.4
2023-03-06T09:36:56.313Z,3.48
2023-03-06T09:37:34.589Z,3.43
2023-03-06T09:38:35.076Z,3.34
2023-03-06T09:39:34.865Z,3.34
2023-03-06T09:40:35.126Z,3.24
2023-03-06T09:41:35.032Z,3.3
2023-03-06T09:42:36.101Z,3.3
2023-03-06T09:43:34.989Z,3.32
2023-03-06T09:44:34.971Z,3.21
2023-03-06T09:45:34.939Z,3.19
2023-03-06T09:46:34.704Z,3.13
2023-03-06T09:47:34.907Z,3.13
2023-03-06T09:48:34.889Z,3.14
2023-03-06T09:49:34.884Z,3.08
2023-03-06T09:50:34.854Z,3.14
2023-03-06T09:51:34.581Z,3.11
2023-03-06T09:52:34.602Z,3.14
2023-03-06T09:53:34.800Z,3.24
2023-03-06T09:54:34.533Z,3.26
2023-03-06T09:55:34.528Z,3.23
2023-03-06T09:56:34.815Z,3.24
2023-03-06T09:57:34.747Z,3.24
2023-03-06T09:58:34.699Z,3.26
2023-03-06T09:59:34.436Z,3.23
2023-03-06T10:00:34.673Z,3.21
2023-03-06T10:01:34.416Z,3.19
2023-03-06T10:02:35.116Z,3.21
2023-03-06T10:03:34.840Z,3.16
2023-03-06T10:04:34.526Z,3.16
2023-03-06T10:05:34.342Z,3.11
2023-03-06T10:06:34.602Z,3.21
2023-03-06T10:07:34.044Z,3.2
2023-03-06T10:08:34.275Z,3.43
2023-03-06T10:09:34.267Z,3.51
2023-03-06T10:10:34.256Z,3.57
2023-03-06T10:11:34.226Z,3.66
2023-03-06T10:12:34.692Z,3.71
2023-03-06T10:13:34.452Z,3.79
2023-03-06T10:14:33.919Z,3.72
2023-03-06T10:15:34.343Z,3.66
2023-03-06T10:16:34.150Z,3.74
2023-03-06T10:17:34.419Z,3.48
2023-03-06T10:18:34.363Z,3.48
2023-03-06T10:19:34.132Z,3.49
2023-03-06T10:20:34.077Z,3.49
2023-03-06T10:21:35.144Z,3.6
2023-03-06T10:22:35.143Z,3.66
2023-03-06T10:23:34.842Z,3.69
2023-03-06T10:24:34.884Z,3.69
2023-03-06T10:25:35.066Z,3.81
2023-03-06T10:26:35.456Z,3.82
2023-03-06T10:27:34.831Z,3.93
2023-03-06T10:28:37.818Z,4.03
2023-03-06T10:29:34.507Z,4.29
2023-03-06T10:30:34.763Z,4.28
2023-03-06T10:31:34.963Z,4.32
2023-03-06T10:32:52.035Z,4.29
2023-03-06T10:33:34.689Z,4.3
2023-03-06T10:34:34.681Z,4.18
2023-03-06T10:35:35.358Z,4.18
2023-03-06T10:36:34.900Z,4.32
2023-03-06T10:37:36.206Z,4.39
2023-03-06T10:38:34.948Z,4.36
2023-03-06T10:39:34.853Z,4.29
2023-03-06T10:40:34.575Z,4.12
2023-03-06T10:41:34.825Z,3.92
2023-03-06T10:42:34.601Z,3.82
2023-03-06T10:43:37.600Z,3.66
2023-03-06T10:44:34.854Z,3.48
2023-03-06T10:45:51.692Z,3.46
2023-03-06T10:46:34.949Z,3.43
2023-03-06T10:47:34.743Z,3.42
2023-03-06T10:48:34.627Z,3.45
2023-03-06T10:49:34.524Z,3.49
2023-03-06T10:50:34.651Z,3.53
2023-03-06T10:51:34.405Z,3.66
2023-03-06T10:52:34.367Z,3.76
2023-03-06T10:53:34.601Z,3.71
2023-03-06T10:54:34.333Z,3.74
2023-03-06T10:55:34.617Z,3.66
2023-03-06T10:56:34.320Z,3.48
2023-03-06T10:57:34.735Z,3.51
2023-03-06T10:58:34.708Z,3.54
2023-03-06T10:59:34.665Z,3.43
2023-03-06T11:00:35.062Z,3.27
2023-03-06T11:01:35.046Z,3.21
2023-03-06T11:02:34.643Z,3.23
2023-03-06T11:03:34.620Z,3.23
2023-03-06T11:04:35.141Z,3.19
2023-03-06T11:05:34.572Z,3.23
2023-03-06T11:06:34.600Z,3.27
2023-03-06T11:07:34.542Z,3.26
2023-03-06T11:08:34.535Z,3.23
2023-03-06T11:09:34.750Z,3.21
2023-03-06T11:10:34.751Z,3.24
2023-03-06T11:11:42.097Z,3.21
2023-03-06T11:12:34.493Z,3.23
2023-03-06T11:13:34.676Z,3.39
2023-03-06T11:14:34.668Z,3.29
2023-03-06T11:15:34.773Z,3.35
2023-03-06T11:16:35.058Z,3.39
2023-03-06T11:17:34.663Z,3.35
2023-03-06T11:18:34.609Z,3.21
2023-03-06T11:19:34.600Z,3.39
2023-03-06T11:20:56.553Z,3.48
2023-03-06T11:21:36.295Z,3.42
2023-03-06T11:22:34.275Z,3.45
2023-03-06T11:23:34.277Z,3.37
2023-03-06T11:24:34.484Z,3.46
2023-03-06T11:25:33.962Z,3.48
2023-03-06T11:26:34.197Z,3.42
2023-03-06T11:27:34.437Z,3.45
2023-03-06T11:28:34.541Z,3.46
2023-03-06T11:29:38.908Z,3.45
2023-03-06T11:30:34.381Z,3.57
2023-03-06T11:31:34.294Z,3.49
2023-03-06T11:32:34.817Z,3.48
2023-03-06T11:33:34.342Z,3.48
2023-03-06T11:34:33.824Z,3.57
2023-03-06T11:35:34.387Z,3.57
2023-03-06T11:36:34.055Z,3.49
2023-03-06T11:37:34.330Z,3.49
2023-03-06T11:38:34.258Z,3.49
2023-03-06T11:39:33.974Z,3.6
2023-03-06T11:40:33.704Z,3.84
2023-03-06T11:41:33.946Z,3.84
2023-03-06T11:42:33.924Z,3.94
2023-03-06T11:43:34.178Z,4.1
2023-03-06T11:44:34.140Z,4.29
2023-03-06T11:45:34.131Z,4.39
2023-03-06T11:46:34.356Z,4.47
2023-03-06T11:47:33.842Z,4.57
2023-03-06T11:48:34.157Z,4.53
2023-03-06T11:49:34.059Z,4.47
2023-03-06T11:50:34.060Z,4.48
2023-03-06T11:51:33.791Z,4.5
2023-03-06T11:52:33.746Z,4.51
2023-03-06T11:53:33.513Z,4.58
2023-03-06T11:54:33.980Z,4.71
2023-03-06T11:55:33.444Z,4.69
2023-03-06T11:56:36.102Z,4.69
2023-03-06T11:57:33.672Z,4.79
2023-03-06T11:58:33.916Z,4.91
2023-03-06T11:59:33.894Z,4.98
2023-03-06T12:00:33.886Z,5
2023-03-06T12:01:33.628Z,5.12
2023-03-06T12:02:33.979Z,5.15
2023-03-06T12:03:33.831Z,5.18
2023-03-06T12:04:33.927Z,5.2
2023-03-06T12:05:33.815Z,5.13
2023-03-06T12:06:33.777Z,5.27
2023-03-06T12:07:33.768Z,5.37
2023-03-06T12:08:33.757Z,5.46
2023-03-06T12:09:33.232Z,5.54
2023-03-06T12:10:33.466Z,5.59
2023-03-06T12:11:36.356Z,5.67
2023-03-06T12:12:33.693Z,5.75
2023-03-06T12:13:33.728Z,5.75
2023-03-06T12:14:33.398Z,5.84
2023-03-06T12:15:33.657Z,5.84
2023-03-06T12:16:33.817Z,5.75
2023-03-06T12:17:33.107Z,5.59
2023-03-06T12:18:33.717Z,5.49
2023-03-06T12:19:33.328Z,5.44
2023-03-06T12:20:33.657Z,5.44
2023-03-06T12:21:33.538Z,5.39
2023-03-06T12:22:35.735Z,5.39
2023-03-06T12:23:33.505Z,5.34
2023-03-06T12:24:33.490Z,5.27
2023-03-06T12:25:33.599Z,5.06
2023-03-06T12:26:33.454Z,4.85
2023-03-06T12:27:33.445Z,4.88
2023-03-06T12:28:33.166Z,4.65
2023-03-06T12:29:33.422Z,4.61
2023-03-06T12:30:33.421Z,4.51
2023-03-06T12:31:33.378Z,4.5
2023-03-06T12:32:33.047Z,4.5
2023-03-06T12:33:33.429Z,4.65
2023-03-06T12:34:33.333Z,4.76
2023-03-06T12:35:33.260Z,4.91
2023-03-06T12:36:33.407Z,5.05
2023-03-06T12:37:33.276Z,5.3
2023-03-06T12:38:33.017Z,5.41
2023-03-06T12:39:33.284Z,5.36
2023-03-06T12:40:33.091Z,5.41
2023-03-06T12:41:33.221Z,5.44
2023-03-06T12:42:32.945Z,5.41
2023-03-06T12:43:32.957Z,5.18
2023-03-06T12:44:33.023Z,5
2023-03-06T12:45:32.938Z,4.79
2023-03-06T12:46:33.156Z,4.72
2023-03-06T12:47:33.118Z,4.65
2023-03-06T12:48:32.843Z,4.46
2023-03-06T12:49:37.689Z,4.61
2023-03-06T12:50:32.841Z,4.6
2023-03-06T12:51:33.054Z,4.46
2023-03-06T12:52:35.486Z,4.35
2023-03-06T12:53:33.099Z,4.46
2023-03-06T12:54:33.071Z,4.48
2023-03-06T12:55:32.740Z,4.54
2023-03-06T12:56:33.518Z,4.47
2023-03-06T12:57:34.130Z,4.46
2023-03-06T12:58:33.900Z,4.57
2023-03-06T12:59:34.086Z,4.51
2023-03-06T13:00:33.854Z,4.57
2023-03-06T13:01:34.248Z,4.66
2023-03-06T13:02:34.359Z,4.68
2023-03-06T13:03:34.024Z,4.69
2023-03-06T13:04:33.769Z,4.83
2023-03-06T13:05:33.991Z,4.91
2023-03-06T13:06:50.058Z,4.78
2023-03-06T13:07:33.824Z,4.66
2023-03-06T13:08:34.036Z,4.6
2023-03-06T13:09:33.688Z,4.6
2023-03-06T13:10:33.909Z,4.64
2023-03-06T13:11:33.648Z,4.69
2023-03-06T13:12:33.879Z,4.71
2023-03-06T13:13:33.896Z,4.68
2023-03-06T13:14:34.216Z,4.57
2023-03-06T13:15:33.849Z,4.54
2023-03-06T13:16:33.506Z,4.48
2023-03-06T13:17:33.566Z,4.56
2023-03-06T13:18:33.532Z,4.46
2023-03-06T13:19:33.763Z,4.5
2023-03-06T13:20:35.820Z,4.5
2023-03-06T13:21:33.804Z,4.42
2023-03-06T13:22:33.712Z,4.22
2023-03-06T13:23:33.806Z,4.21
2023-03-06T13:24:33.789Z,3.93
2023-03-06T13:25:33.658Z,3.94
2023-03-06T13:26:33.400Z,3.85
2023-03-06T13:27:33.646Z,3.82
2023-03-06T13:28:33.617Z,3.86
2023-03-06T13:29:33.338Z,3.84
2023-03-06T13:30:33.196Z,3.99